sensor_id;sensor_type;location;lat;lon;timestamp;P1;durP1;ratioP1;P2;durP2;ratioP2
41705;SDS011;27385;51.096;17.190;2022-07-18T00:00:16;10.90;;;2.50;;
41705;SDS011;27385;51.096;17.190;2022-07-18T00:03:04;10.20;;;2.30;;
41705;SDS011;27385;51.096;17.190;2022-07-18T00:05:36;9.70;;;2.40;;
41705;SDS011;27385;51.096;17.190;2022-07-18T00:08:07;13.10;;;3.00;;
41705;SDS011;27385;51.096;17.190;2022-07-18T00:10:39;9.50;;;2.30;;
41705;SDS011;27385;51.096;17.190;2022-07-18T00:13:11;12.80;;;2.50;;
41705;SDS011;27385;51.096;17.190;2022-07-18T00:15:43;10.60;;;2.60;;
41705;SDS011;27385;51.096;17.190;2022-07-18T00:18:14;12.80;;;2.70;;
41705;SDS011;27385;51.096;17.190;2022-07-18T00:20:46;11.90;;;2.60;;
41705;SDS011;27385;51.096;17.190;2022-07-18T00:23:18;10.00;;;3.00;;
41705;SDS011;27385;51.096;17.190;2022-07-18T00:25:49;8.70;;;2.40;;
41705;SDS011;27385;51.096;17.190;2022-07-18T00:28:21;11.70;;;2.50;;
41705;SDS011;27385;51.096;17.190;2022-07-18T00:30:52;10.60;;;2.30;;
41705;SDS011;27385;51.096;17.190;2022-07-18T00:33:24;10.20;;;2.10;;
41705;SDS011;27385;51.096;17.190;2022-07-18T00:35:56;12.40;;;2.30;;
41705;SDS011;27385;51.096;17.190;2022-07-18T00:38:27;8.30;;;2.30;;
41705;SDS011;27385;51.096;17.190;2022-07-18T00:40:59;9.00;;;2.40;;
41705;SDS011;27385;51.096;17.190;2022-07-18T00:43:31;11.80;;;3.30;;
41705;SDS011;27385;51.096;17.190;2022-07-18T00:46:02;9.00;;;2.20;;
41705;SDS011;27385;51.096;17.190;2022-07-18T00:48:34;12.70;;;2.30;;
41705;SDS011;27385;51.096;17.190;2022-07-18T00:51:06;9.00;;;2.20;;
41705;SDS011;27385;51.096;17.190;2022-07-18T00:53:38;10.30;;;2.50;;
41705;SDS011;27385;51.096;17.190;2022-07-18T00:56:10;9.00;;;2.50;;
41705;SDS011;27385;51.096;17.190;2022-07-18T00:58:45;10.80;;;1.90;;
41705;SDS011;27385;51.096;17.190;2022-07-18T01:01:18;10.00;;;2.70;;
41705;SDS011;27385;51.096;17.190;2022-07-18T01:04:07;13.00;;;2.30;;
41705;SDS011;27385;51.096;17.190;2022-07-18T01:06:40;9.90;;;2.50;;
41705;SDS011;27385;51.096;17.190;2022-07-18T01:09:11;7.70;;;2.20;;
41705;SDS011;27385;51.096;17.190;2022-07-18T01:11:43;10.80;;;2.40;;
41705;SDS011;27385;51.096;17.190;2022-07-18T01:14:15;12.60;;;2.40;;
41705;SDS011;27385;51.096;17.190;2022-07-18T01:16:48;7.20;;;1.90;;
41705;SDS011;27385;51.096;17.190;2022-07-18T01:19:20;9.20;;;2.00;;
41705;SDS011;27385;51.096;17.190;2022-07-18T01:21:52;9.10;;;1.80;;
41705;SDS011;27385;51.096;17.190;2022-07-18T01:24:24;11.50;;;1.90;;
41705;SDS011;27385;51.096;17.190;2022-07-18T01:26:55;8.70;;;2.40;;
41705;SDS011;27385;51.096;17.190;2022-07-18T01:29:26;11.50;;;2.50;;
41705;SDS011;27385;51.096;17.190;2022-07-18T01:31:58;10.20;;;1.90;;
41705;SDS011;27385;51.096;17.190;2022-07-18T01:34:35;11.30;;;2.30;;
41705;SDS011;27385;51.096;17.190;2022-07-18T01:37:07;10.10;;;2.20;;
41705;SDS011;27385;51.096;17.190;2022-07-18T01:39:39;7.70;;;2.00;;
41705;SDS011;27385;51.096;17.190;2022-07-18T01:42:11;7.00;;;1.80;;
41705;SDS011;27385;51.096;17.190;2022-07-18T01:44:44;11.40;;;2.30;;
41705;SDS011;27385;51.096;17.190;2022-07-18T01:47:16;8.80;;;1.80;;
41705;SDS011;27385;51.096;17.190;2022-07-18T01:49:47;8.30;;;1.90;;
41705;SDS011;27385;51.096;17.190;2022-07-18T01:52:20;5.80;;;1.70;;
41705;SDS011;27385;51.096;17.190;2022-07-18T01:54:51;9.60;;;2.10;;
41705;SDS011;27385;51.096;17.190;2022-07-18T01:57:23;11.70;;;2.80;;
41705;SDS011;27385;51.096;17.190;2022-07-18T01:59:55;14.40;;;3.00;;
41705;SDS011;27385;51.096;17.190;2022-07-18T02:02:27;9.00;;;2.80;;
41705;SDS011;27385;51.096;17.190;2022-07-18T02:04:58;11.50;;;2.90;;
41705;SDS011;27385;51.096;17.190;2022-07-18T02:07:32;10.00;;;2.70;;
41705;SDS011;27385;51.096;17.190;2022-07-18T02:10:06;15.00;;;2.60;;
41705;SDS011;27385;51.096;17.190;2022-07-18T02:12:40;10.60;;;2.00;;
41705;SDS011;27385;51.096;17.190;2022-07-18T02:15:13;13.50;;;2.10;;
41705;SDS011;27385;51.096;17.190;2022-07-18T02:17:45;5.70;;;1.80;;
41705;SDS011;27385;51.096;17.190;2022-07-18T02:20:16;10.80;;;2.20;;
41705;SDS011;27385;51.096;17.190;2022-07-18T02:22:48;17.30;;;1.70;;
41705;SDS011;27385;51.096;17.190;2022-07-18T02:25:20;11.40;;;2.40;;
41705;SDS011;27385;51.096;17.190;2022-07-18T02:27:51;9.30;;;1.90;;
41705;SDS011;27385;51.096;17.190;2022-07-18T02:30:24;13.60;;;1.80;;
41705;SDS011;27385;51.096;17.190;2022-07-18T02:32:56;10.90;;;1.70;;
41705;SDS011;27385;51.096;17.190;2022-07-18T02:35:28;7.40;;;1.90;;
41705;SDS011;27385;51.096;17.190;2022-07-18T02:38:00;7.20;;;1.70;;
41705;SDS011;27385;51.096;17.190;2022-07-18T02:40:32;9.70;;;1.50;;
41705;SDS011;27385;51.096;17.190;2022-07-18T02:43:04;7.80;;;1.70;;
41705;SDS011;27385;51.096;17.190;2022-07-18T02:45:35;10.80;;;2.30;;
41705;SDS011;27385;51.096;17.190;2022-07-18T02:48:07;8.00;;;1.60;;
41705;SDS011;27385;51.096;17.190;2022-07-18T02:50:38;8.80;;;1.70;;
41705;SDS011;27385;51.096;17.190;2022-07-18T02:53:10;7.00;;;1.60;;
41705;SDS011;27385;51.096;17.190;2022-07-18T02:55:41;6.90;;;1.80;;
41705;SDS011;27385;51.096;17.190;2022-07-18T02:58:13;8.40;;;1.50;;
41705;SDS011;27385;51.096;17.190;2022-07-18T03:00:44;6.10;;;1.50;;
41705;SDS011;27385;51.096;17.190;2022-07-18T03:03:16;15.30;;;1.90;;
41705;SDS011;27385;51.096;17.190;2022-07-18T03:05:48;8.90;;;1.80;;
41705;SDS011;27385;51.096;17.190;2022-07-18T03:08:20;9.50;;;2.60;;
41705;SDS011;27385;51.096;17.190;2022-07-18T03:10:51;8.30;;;1.50;;
41705;SDS011;27385;51.096;17.190;2022-07-18T03:13:24;10.60;;;2.10;;
41705;SDS011;27385;51.096;17.190;2022-07-18T03:15:55;7.40;;;1.70;;
41705;SDS011;27385;51.096;17.190;2022-07-18T03:18:26;9.10;;;1.90;;
41705;SDS011;27385;51.096;17.190;2022-07-18T03:20:58;8.60;;;1.60;;
41705;SDS011;27385;51.096;17.190;2022-07-18T03:23:29;11.80;;;1.70;;
41705;SDS011;27385;51.096;17.190;2022-07-18T03:26:02;9.60;;;1.80;;
41705;SDS011;27385;51.096;17.190;2022-07-18T03:28:34;6.50;;;1.50;;
41705;SDS011;27385;51.096;17.190;2022-07-18T03:31:06;12.40;;;1.90;;
41705;SDS011;27385;51.096;17.190;2022-07-18T03:33:39;6.80;;;1.50;;
41705;SDS011;27385;51.096;17.190;2022-07-18T03:36:14;9.70;;;1.60;;
41705;SDS011;27385;51.096;17.190;2022-07-18T03:38:45;10.20;;;2.40;;
41705;SDS011;27385;51.096;17.190;2022-07-18T03:41:17;7.70;;;1.50;;
41705;SDS011;27385;51.096;17.190;2022-07-18T03:43:49;6.90;;;1.60;;
41705;SDS011;27385;51.096;17.190;2022-07-18T03:46:21;9.80;;;1.60;;
41705;SDS011;27385;51.096;17.190;2022-07-18T03:48:52;12.50;;;1.70;;
41705;SDS011;27385;51.096;17.190;2022-07-18T03:51:24;10.20;;;2.10;;
41705;SDS011;27385;51.096;17.190;2022-07-18T03:53:55;8.50;;;1.80;;
41705;SDS011;27385;51.096;17.190;2022-07-18T03:56:27;9.50;;;1.90;;
41705;SDS011;27385;51.096;17.190;2022-07-18T03:58:58;9.70;;;1.70;;
41705;SDS011;27385;51.096;17.190;2022-07-18T04:01:30;10.20;;;2.10;;
41705;SDS011;27385;51.096;17.190;2022-07-18T04:04:02;8.40;;;1.60;;
41705;SDS011;27385;51.096;17.190;2022-07-18T04:06:33;8.40;;;1.60;;
41705;SDS011;27385;51.096;17.190;2022-07-18T04:09:04;15.40;;;1.80;;
41705;SDS011;27385;51.096;17.190;2022-07-18T04:11:36;9.50;;;1.70;;
41705;SDS011;27385;51.096;17.190;2022-07-18T04:14:07;7.60;;;1.80;;
41705;SDS011;27385;51.096;17.190;2022-07-18T04:16:39;15.10;;;2.40;;
41705;SDS011;27385;51.096;17.190;2022-07-18T04:19:11;11.00;;;2.20;;
41705;SDS011;27385;51.096;17.190;2022-07-18T04:21:45;11.90;;;1.70;;
41705;SDS011;27385;51.096;17.190;2022-07-18T04:24:16;13.40;;;2.40;;
41705;SDS011;27385;51.096;17.190;2022-07-18T04:26:48;7.50;;;2.00;;
41705;SDS011;27385;51.096;17.190;2022-07-18T04:29:19;14.10;;;2.50;;
41705;SDS011;27385;51.096;17.190;2022-07-18T04:31:51;12.60;;;2.20;;
41705;SDS011;27385;51.096;17.190;2022-07-18T04:34:22;10.30;;;2.60;;
41705;SDS011;27385;51.096;17.190;2022-07-18T04:36:54;12.40;;;1.70;;
41705;SDS011;27385;51.096;17.190;2022-07-18T04:39:25;9.20;;;1.50;;
41705;SDS011;27385;51.096;17.190;2022-07-18T04:41:57;15.00;;;1.70;;
41705;SDS011;27385;51.096;17.190;2022-07-18T04:44:29;16.30;;;2.10;;
41705;SDS011;27385;51.096;17.190;2022-07-18T04:47:01;15.90;;;1.70;;
41705;SDS011;27385;51.096;17.190;2022-07-18T04:49:33;8.80;;;1.50;;
41705;SDS011;27385;51.096;17.190;2022-07-18T04:52:05;11.20;;;1.50;;
41705;SDS011;27385;51.096;17.190;2022-07-18T04:54:36;11.70;;;1.80;;
41705;SDS011;27385;51.096;17.190;2022-07-18T04:57:08;19.10;;;1.90;;
41705;SDS011;27385;51.096;17.190;2022-07-18T04:59:42;9.90;;;1.90;;
41705;SDS011;27385;51.096;17.190;2022-07-18T05:02:17;13.00;;;1.90;;
41705;SDS011;27385;51.096;17.190;2022-07-18T05:04:48;12.70;;;1.90;;
41705;SDS011;27385;51.096;17.190;2022-07-18T05:07:20;13.40;;;2.20;;
41705;SDS011;27385;51.096;17.190;2022-07-18T05:09:51;11.70;;;2.00;;
41705;SDS011;27385;51.096;17.190;2022-07-18T05:12:23;11.80;;;2.40;;
41705;SDS011;27385;51.096;17.190;2022-07-18T05:14:54;12.30;;;1.90;;
41705;SDS011;27385;51.096;17.190;2022-07-18T05:17:25;9.00;;;2.10;;
41705;SDS011;27385;51.096;17.190;2022-07-18T05:19:57;9.70;;;2.00;;
41705;SDS011;27385;51.096;17.190;2022-07-18T05:22:29;7.60;;;1.60;;
41705;SDS011;27385;51.096;17.190;2022-07-18T05:25:01;13.30;;;1.40;;
41705;SDS011;27385;51.096;17.190;2022-07-18T05:27:33;7.30;;;1.30;;
41705;SDS011;27385;51.096;17.190;2022-07-18T05:30:07;9.90;;;1.80;;
41705;SDS011;27385;51.096;17.190;2022-07-18T05:32:40;9.20;;;2.10;;
41705;SDS011;27385;51.096;17.190;2022-07-18T05:35:13;10.30;;;2.10;;
41705;SDS011;27385;51.096;17.190;2022-07-18T05:37:44;11.20;;;2.10;;
41705;SDS011;27385;51.096;17.190;2022-07-18T05:40:16;10.50;;;2.00;;
41705;SDS011;27385;51.096;17.190;2022-07-18T05:42:48;9.40;;;2.00;;
41705;SDS011;27385;51.096;17.190;2022-07-18T05:45:20;9.20;;;1.70;;
41705;SDS011;27385;51.096;17.190;2022-07-18T05:47:52;8.80;;;1.80;;
41705;SDS011;27385;51.096;17.190;2022-07-18T05:50:24;7.30;;;2.00;;
41705;SDS011;27385;51.096;17.190;2022-07-18T05:52:56;9.40;;;1.50;;
41705;SDS011;27385;51.096;17.190;2022-07-18T05:55:27;5.30;;;1.40;;
41705;SDS011;27385;51.096;17.190;2022-07-18T05:57:59;9.10;;;1.40;;
41705;SDS011;27385;51.096;17.190;2022-07-18T06:00:31;11.00;;;2.00;;
41705;SDS011;27385;51.096;17.190;2022-07-18T06:03:03;7.30;;;1.30;;
41705;SDS011;27385;51.096;17.190;2022-07-18T06:05:36;11.80;;;1.40;;
41705;SDS011;27385;51.096;17.190;2022-07-18T06:08:09;7.20;;;1.40;;
41705;SDS011;27385;51.096;17.190;2022-07-18T06:10:42;5.30;;;1.10;;
41705;SDS011;27385;51.096;17.190;2022-07-18T06:13:13;9.10;;;1.60;;
41705;SDS011;27385;51.096;17.190;2022-07-18T06:15:45;9.50;;;1.50;;
41705;SDS011;27385;51.096;17.190;2022-07-18T06:18:17;6.80;;;1.20;;
41705;SDS011;27385;51.096;17.190;2022-07-18T06:20:49;7.20;;;1.00;;
41705;SDS011;27385;51.096;17.190;2022-07-18T06:23:21;10.70;;;1.50;;
41705;SDS011;27385;51.096;17.190;2022-07-18T06:25:53;9.30;;;1.50;;
41705;SDS011;27385;51.096;17.190;2022-07-18T06:28:25;10.40;;;1.60;;
41705;SDS011;27385;51.096;17.190;2022-07-18T06:30:56;5.10;;;1.00;;
41705;SDS011;27385;51.096;17.190;2022-07-18T06:33:30;9.40;;;1.00;;
41705;SDS011;27385;51.096;17.190;2022-07-18T06:36:01;8.10;;;1.00;;
41705;SDS011;27385;51.096;17.190;2022-07-18T06:38:34;6.30;;;1.70;;
41705;SDS011;27385;51.096;17.190;2022-07-18T06:41:06;8.10;;;1.80;;
41705;SDS011;27385;51.096;17.190;2022-07-18T06:43:38;6.10;;;1.30;;
41705;SDS011;27385;51.096;17.190;2022-07-18T06:46:10;6.90;;;1.20;;
41705;SDS011;27385;51.096;17.190;2022-07-18T06:48:42;5.90;;;0.90;;
41705;SDS011;27385;51.096;17.190;2022-07-18T06:51:14;5.60;;;0.90;;
41705;SDS011;27385;51.096;17.190;2022-07-18T06:53:45;10.30;;;1.30;;
41705;SDS011;27385;51.096;17.190;2022-07-18T06:56:16;8.00;;;0.70;;
41705;SDS011;27385;51.096;17.190;2022-07-18T06:58:48;4.90;;;0.90;;
41705;SDS011;27385;51.096;17.190;2022-07-18T07:01:20;5.90;;;0.90;;
41705;SDS011;27385;51.096;17.190;2022-07-18T07:03:52;6.50;;;1.00;;
41705;SDS011;27385;51.096;17.190;2022-07-18T07:06:23;7.40;;;1.10;;
41705;SDS011;27385;51.096;17.190;2022-07-18T07:08:55;11.10;;;0.90;;
41705;SDS011;27385;51.096;17.190;2022-07-18T07:11:29;10.50;;;0.90;;
41705;SDS011;27385;51.096;17.190;2022-07-18T07:14:02;9.40;;;0.80;;
41705;SDS011;27385;51.096;17.190;2022-07-18T07:16:34;2.80;;;0.50;;
41705;SDS011;27385;51.096;17.190;2022-07-18T07:19:06;11.20;;;1.20;;
41705;SDS011;27385;51.096;17.190;2022-07-18T07:21:38;7.00;;;0.60;;
41705;SDS011;27385;51.096;17.190;2022-07-18T07:24:09;3.00;;;0.70;;
41705;SDS011;27385;51.096;17.190;2022-07-18T07:26:41;7.30;;;1.10;;
41705;SDS011;27385;51.096;17.190;2022-07-18T07:29:13;4.40;;;0.70;;
41705;SDS011;27385;51.096;17.190;2022-07-18T07:31:46;4.40;;;0.80;;
41705;SDS011;27385;51.096;17.190;2022-07-18T07:34:17;5.00;;;0.70;;
41705;SDS011;27385;51.096;17.190;2022-07-18T07:36:49;4.80;;;0.60;;
41705;SDS011;27385;51.096;17.190;2022-07-18T07:39:20;4.40;;;0.50;;
41705;SDS011;27385;51.096;17.190;2022-07-18T07:41:52;12.30;;;1.00;;
41705;SDS011;27385;51.096;17.190;2022-07-18T07:44:23;4.90;;;0.60;;
41705;SDS011;27385;51.096;17.190;2022-07-18T07:46:55;4.70;;;0.50;;
41705;SDS011;27385;51.096;17.190;2022-07-18T07:49:27;5.30;;;0.90;;
41705;SDS011;27385;51.096;17.190;2022-07-18T07:52:02;5.60;;;0.80;;
41705;SDS011;27385;51.096;17.190;2022-07-18T07:54:34;8.40;;;0.80;;
41705;SDS011;27385;51.096;17.190;2022-07-18T07:57:12;8.50;;;0.70;;
41705;SDS011;27385;51.096;17.190;2022-07-18T07:59:48;3.70;;;0.40;;
41705;SDS011;27385;51.096;17.190;2022-07-18T08:02:28;3.80;;;0.50;;
41705;SDS011;27385;51.096;17.190;2022-07-18T08:05:04;5.70;;;0.50;;
41705;SDS011;27385;51.096;17.190;2022-07-18T08:07:42;3.90;;;0.50;;
41705;SDS011;27385;51.096;17.190;2022-07-18T08:10:15;5.50;;;0.50;;
41705;SDS011;27385;51.096;17.190;2022-07-18T08:12:47;4.70;;;0.80;;
41705;SDS011;27385;51.096;17.190;2022-07-18T08:15:20;5.10;;;0.50;;
41705;SDS011;27385;51.096;17.190;2022-07-18T08:17:53;3.40;;;0.50;;
41705;SDS011;27385;51.096;17.190;2022-07-18T08:20:26;1.90;;;0.40;;
41705;SDS011;27385;51.096;17.190;2022-07-18T08:23:09;3.90;;;0.40;;
41705;SDS011;27385;51.096;17.190;2022-07-18T08:25:43;5.40;;;0.60;;
41705;SDS011;27385;51.096;17.190;2022-07-18T08:28:16;3.60;;;0.40;;
41705;SDS011;27385;51.096;17.190;2022-07-18T08:30:48;6.80;;;0.50;;
41705;SDS011;27385;51.096;17.190;2022-07-18T08:33:20;2.70;;;0.40;;
41705;SDS011;27385;51.096;17.190;2022-07-18T08:35:52;9.10;;;0.90;;
41705;SDS011;27385;51.096;17.190;2022-07-18T08:38:24;5.50;;;0.40;;
41705;SDS011;27385;51.096;17.190;2022-07-18T08:41:00;5.60;;;0.40;;
41705;SDS011;27385;51.096;17.190;2022-07-18T08:43:33;3.50;;;0.50;;
41705;SDS011;27385;51.096;17.190;2022-07-18T08:46:11;2.90;;;0.30;;
41705;SDS011;27385;51.096;17.190;2022-07-18T08:48:59;2.80;;;0.60;;
41705;SDS011;27385;51.096;17.190;2022-07-18T08:51:31;4.60;;;0.50;;
41705;SDS011;27385;51.096;17.190;2022-07-18T08:54:04;7.10;;;0.50;;
41705;SDS011;27385;51.096;17.190;2022-07-18T08:56:36;5.20;;;0.60;;
41705;SDS011;27385;51.096;17.190;2022-07-18T08:59:07;2.40;;;0.30;;
41705;SDS011;27385;51.096;17.190;2022-07-18T09:01:39;3.80;;;0.50;;
41705;SDS011;27385;51.096;17.190;2022-07-18T09:04:10;7.40;;;0.50;;
41705;SDS011;27385;51.096;17.190;2022-07-18T09:07:00;8.20;;;0.80;;
41705;SDS011;27385;51.096;17.190;2022-07-18T09:09:33;4.60;;;0.40;;
41705;SDS011;27385;51.096;17.190;2022-07-18T09:12:06;3.10;;;0.40;;
41705;SDS011;27385;51.096;17.190;2022-07-18T09:14:39;5.30;;;0.40;;
41705;SDS011;27385;51.096;17.190;2022-07-18T09:17:12;5.20;;;0.50;;
41705;SDS011;27385;51.096;17.190;2022-07-18T09:19:57;3.50;;;0.50;;
41705;SDS011;27385;51.096;17.190;2022-07-18T09:22:31;7.30;;;0.60;;
41705;SDS011;27385;51.096;17.190;2022-07-18T09:25:06;4.70;;;0.40;;
41705;SDS011;27385;51.096;17.190;2022-07-18T09:27:40;4.60;;;0.50;;
41705;SDS011;27385;51.096;17.190;2022-07-18T09:30:18;5.50;;;0.70;;
41705;SDS011;27385;51.096;17.190;2022-07-18T09:32:53;5.30;;;0.50;;
41705;SDS011;27385;51.096;17.190;2022-07-18T09:35:36;8.80;;;0.60;;
41705;SDS011;27385;51.096;17.190;2022-07-18T09:38:11;3.50;;;0.50;;
41705;SDS011;27385;51.096;17.190;2022-07-18T09:40:44;6.40;;;1.10;;
41705;SDS011;27385;51.096;17.190;2022-07-18T09:43:18;3.80;;;0.40;;
41705;SDS011;27385;51.096;17.190;2022-07-18T09:46:13;3.10;;;0.40;;
41705;SDS011;27385;51.096;17.190;2022-07-18T09:49:12;5.70;;;0.40;;
41705;SDS011;27385;51.096;17.190;2022-07-18T09:57:08;3.90;;;0.50;;
41705;SDS011;27385;51.096;17.190;2022-07-18T09:59:53;6.00;;;0.60;;
41705;SDS011;27385;51.096;17.190;2022-07-18T10:02:24;3.70;;;0.50;;
41705;SDS011;27385;51.096;17.190;2022-07-18T10:04:56;4.70;;;0.60;;
41705;SDS011;27385;51.096;17.190;2022-07-18T10:07:30;2.40;;;0.40;;
41705;SDS011;27385;51.096;17.190;2022-07-18T10:10:01;4.70;;;0.40;;
41705;SDS011;27385;51.096;17.190;2022-07-18T10:12:33;6.10;;;0.50;;
41705;SDS011;27385;51.096;17.190;2022-07-18T10:15:06;3.20;;;0.40;;
41705;SDS011;27385;51.096;17.190;2022-07-18T10:17:39;2.30;;;0.40;;
41705;SDS011;27385;51.096;17.190;2022-07-18T10:20:11;2.10;;;0.40;;
41705;SDS011;27385;51.096;17.190;2022-07-18T10:22:43;7.50;;;0.50;;
41705;SDS011;27385;51.096;17.190;2022-07-18T10:25:16;3.80;;;0.40;;
41705;SDS011;27385;51.096;17.190;2022-07-18T10:27:54;2.90;;;0.50;;
41705;SDS011;27385;51.096;17.190;2022-07-18T10:30:33;4.00;;;0.40;;
41705;SDS011;27385;51.096;17.190;2022-07-18T10:36:09;7.30;;;0.50;;
41705;SDS011;27385;51.096;17.190;2022-07-18T10:39:04;6.30;;;0.60;;
41705;SDS011;27385;51.096;17.190;2022-07-18T10:44:44;5.50;;;0.50;;
41705;SDS011;27385;51.096;17.190;2022-07-18T10:47:16;2.80;;;0.50;;
41705;SDS011;27385;51.096;17.190;2022-07-18T10:50:05;2.80;;;0.30;;
41705;SDS011;27385;51.096;17.190;2022-07-18T10:52:57;3.60;;;0.40;;
41705;SDS011;27385;51.096;17.190;2022-07-18T10:55:29;5.30;;;0.50;;
41705;SDS011;27385;51.096;17.190;2022-07-18T10:58:17;5.90;;;0.60;;
41705;SDS011;27385;51.096;17.190;2022-07-18T11:00:52;3.00;;;0.60;;
41705;SDS011;27385;51.096;17.190;2022-07-18T11:03:32;5.70;;;0.40;;
41705;SDS011;27385;51.096;17.190;2022-07-18T11:06:04;4.50;;;0.50;;
41705;SDS011;27385;51.096;17.190;2022-07-18T11:08:37;4.00;;;0.70;;
41705;SDS011;27385;51.096;17.190;2022-07-18T11:11:12;8.30;;;0.60;;
41705;SDS011;27385;51.096;17.190;2022-07-18T11:13:45;4.70;;;0.70;;
41705;SDS011;27385;51.096;17.190;2022-07-18T11:16:21;7.00;;;0.60;;
41705;SDS011;27385;51.096;17.190;2022-07-18T11:21:48;4.80;;;0.70;;
41705;SDS011;27385;51.096;17.190;2022-07-18T11:24:28;3.20;;;0.50;;
41705;SDS011;27385;51.096;17.190;2022-07-18T11:27:03;4.70;;;0.50;;
41705;SDS011;27385;51.096;17.190;2022-07-18T11:29:40;7.00;;;0.80;;
41705;SDS011;27385;51.096;17.190;2022-07-18T11:32:12;3.00;;;0.50;;
41705;SDS011;27385;51.096;17.190;2022-07-18T11:34:51;4.40;;;0.60;;
41705;SDS011;27385;51.096;17.190;2022-07-18T11:37:22;2.20;;;0.40;;
41705;SDS011;27385;51.096;17.190;2022-07-18T11:39:54;4.10;;;0.50;;
41705;SDS011;27385;51.096;17.190;2022-07-18T11:42:36;6.20;;;0.60;;
41705;SDS011;27385;51.096;17.190;2022-07-18T11:45:09;5.20;;;0.80;;
41705;SDS011;27385;51.096;17.190;2022-07-18T11:47:46;10.40;;;0.60;;
41705;SDS011;27385;51.096;17.190;2022-07-18T11:50:26;5.40;;;0.70;;
41705;SDS011;27385;51.096;17.190;2022-07-18T11:53:04;5.30;;;0.90;;
41705;SDS011;27385;51.096;17.190;2022-07-18T11:55:36;3.10;;;0.60;;
41705;SDS011;27385;51.096;17.190;2022-07-18T11:58:09;6.40;;;0.70;;
41705;SDS011;27385;51.096;17.190;2022-07-18T12:00:41;3.90;;;0.40;;
41705;SDS011;27385;51.096;17.190;2022-07-18T12:03:14;6.00;;;0.60;;
41705;SDS011;27385;51.096;17.190;2022-07-18T12:05:47;3.60;;;0.70;;
41705;SDS011;27385;51.096;17.190;2022-07-18T12:11:13;3.90;;;0.70;;
41705;SDS011;27385;51.096;17.190;2022-07-18T12:13:50;6.40;;;0.60;;
41705;SDS011;27385;51.096;17.190;2022-07-18T12:16:34;4.40;;;0.70;;
41705;SDS011;27385;51.096;17.190;2022-07-18T12:19:08;4.90;;;0.50;;
41705;SDS011;27385;51.096;17.190;2022-07-18T12:21:44;3.00;;;0.60;;
41705;SDS011;27385;51.096;17.190;2022-07-18T12:24:32;4.60;;;0.70;;
41705;SDS011;27385;51.096;17.190;2022-07-18T12:27:13;4.50;;;0.70;;
41705;SDS011;27385;51.096;17.190;2022-07-18T12:29:57;2.00;;;0.30;;
41705;SDS011;27385;51.096;17.190;2022-07-18T12:32:43;4.70;;;0.70;;
41705;SDS011;27385;51.096;17.190;2022-07-18T12:35:20;4.50;;;0.60;;
41705;SDS011;27385;51.096;17.190;2022-07-18T12:37:54;8.20;;;0.60;;
41705;SDS011;27385;51.096;17.190;2022-07-18T12:40:38;7.40;;;0.70;;
41705;SDS011;27385;51.096;17.190;2022-07-18T12:43:14;7.40;;;0.60;;
41705;SDS011;27385;51.096;17.190;2022-07-18T12:45:52;7.10;;;0.50;;
41705;SDS011;27385;51.096;17.190;2022-07-18T12:48:25;5.30;;;0.60;;
41705;SDS011;27385;51.096;17.190;2022-07-18T12:50:59;8.80;;;0.60;;
41705;SDS011;27385;51.096;17.190;2022-07-18T12:53:33;5.00;;;0.50;;
41705;SDS011;27385;51.096;17.190;2022-07-18T12:56:09;6.30;;;0.50;;
41705;SDS011;27385;51.096;17.190;2022-07-18T12:58:43;5.20;;;0.70;;
41705;SDS011;27385;51.096;17.190;2022-07-18T13:01:14;6.80;;;0.50;;
41705;SDS011;27385;51.096;17.190;2022-07-18T13:03:46;3.70;;;0.50;;
41705;SDS011;27385;51.096;17.190;2022-07-18T13:06:18;2.20;;;0.40;;
41705;SDS011;27385;51.096;17.190;2022-07-18T13:08:50;6.60;;;0.70;;
41705;SDS011;27385;51.096;17.190;2022-07-18T13:11:23;6.80;;;0.60;;
41705;SDS011;27385;51.096;17.190;2022-07-18T13:13:54;6.00;;;0.50;;
41705;SDS011;27385;51.096;17.190;2022-07-18T13:16:26;5.30;;;0.60;;
41705;SDS011;27385;51.096;17.190;2022-07-18T13:18:59;3.40;;;0.60;;
41705;SDS011;27385;51.096;17.190;2022-07-18T13:21:31;4.00;;;0.40;;
41705;SDS011;27385;51.096;17.190;2022-07-18T13:24:03;3.10;;;0.40;;
41705;SDS011;27385;51.096;17.190;2022-07-18T13:26:35;5.80;;;0.70;;
41705;SDS011;27385;51.096;17.190;2022-07-18T13:29:06;5.90;;;0.60;;
41705;SDS011;27385;51.096;17.190;2022-07-18T13:31:38;4.20;;;0.80;;
41705;SDS011;27385;51.096;17.190;2022-07-18T13:34:10;3.90;;;0.90;;
41705;SDS011;27385;51.096;17.190;2022-07-18T13:36:41;7.40;;;0.50;;
41705;SDS011;27385;51.096;17.190;2022-07-18T13:39:14;5.70;;;0.40;;
41705;SDS011;27385;51.096;17.190;2022-07-18T13:41:46;3.40;;;0.70;;
41705;SDS011;27385;51.096;17.190;2022-07-18T13:44:18;5.10;;;0.50;;
41705;SDS011;27385;51.096;17.190;2022-07-18T13:46:49;3.00;;;0.50;;
41705;SDS011;27385;51.096;17.190;2022-07-18T13:49:21;3.80;;;0.50;;
41705;SDS011;27385;51.096;17.190;2022-07-18T13:51:52;2.50;;;0.30;;
41705;SDS011;27385;51.096;17.190;2022-07-18T13:54:24;5.30;;;0.40;;
41705;SDS011;27385;51.096;17.190;2022-07-18T13:56:55;4.40;;;0.50;;
41705;SDS011;27385;51.096;17.190;2022-07-18T13:59:26;2.50;;;0.40;;
41705;SDS011;27385;51.096;17.190;2022-07-18T14:01:58;5.10;;;0.60;;
41705;SDS011;27385;51.096;17.190;2022-07-18T14:04:31;4.00;;;0.60;;
41705;SDS011;27385;51.096;17.190;2022-07-18T14:07:02;7.70;;;0.90;;
41705;SDS011;27385;51.096;17.190;2022-07-18T14:09:35;3.10;;;1.10;;
41705;SDS011;27385;51.096;17.190;2022-07-18T14:12:07;3.80;;;0.60;;
41705;SDS011;27385;51.096;17.190;2022-07-18T14:14:39;3.90;;;0.50;;
41705;SDS011;27385;51.096;17.190;2022-07-18T14:17:10;4.90;;;0.40;;
41705;SDS011;27385;51.096;17.190;2022-07-18T14:19:41;3.60;;;0.50;;
41705;SDS011;27385;51.096;17.190;2022-07-18T14:22:13;3.90;;;0.60;;
41705;SDS011;27385;51.096;17.190;2022-07-18T14:24:44;3.80;;;0.40;;
41705;SDS011;27385;51.096;17.190;2022-07-18T14:27:16;3.90;;;0.50;;
41705;SDS011;27385;51.096;17.190;2022-07-18T14:29:48;3.00;;;0.40;;
41705;SDS011;27385;51.096;17.190;2022-07-18T14:32:20;9.70;;;0.50;;
41705;SDS011;27385;51.096;17.190;2022-07-18T14:34:51;5.10;;;0.40;;
41705;SDS011;27385;51.096;17.190;2022-07-18T14:37:22;4.40;;;0.60;;
41705;SDS011;27385;51.096;17.190;2022-07-18T14:39:54;5.20;;;0.70;;
41705;SDS011;27385;51.096;17.190;2022-07-18T14:42:26;3.80;;;0.50;;
41705;SDS011;27385;51.096;17.190;2022-07-18T14:44:57;5.30;;;0.40;;
41705;SDS011;27385;51.096;17.190;2022-07-18T14:47:30;6.50;;;0.70;;
41705;SDS011;27385;51.096;17.190;2022-07-18T14:50:06;1.90;;;0.40;;
41705;SDS011;27385;51.096;17.190;2022-07-18T14:52:38;2.10;;;0.50;;
41705;SDS011;27385;51.096;17.190;2022-07-18T14:55:10;7.60;;;0.70;;
41705;SDS011;27385;51.096;17.190;2022-07-18T14:57:41;3.70;;;0.60;;
41705;SDS011;27385;51.096;17.190;2022-07-18T15:00:14;3.20;;;0.40;;
41705;SDS011;27385;51.096;17.190;2022-07-18T15:02:45;3.90;;;0.60;;
41705;SDS011;27385;51.096;17.190;2022-07-18T15:05:16;2.50;;;0.30;;
41705;SDS011;27385;51.096;17.190;2022-07-18T15:07:49;5.40;;;0.60;;
41705;SDS011;27385;51.096;17.190;2022-07-18T15:10:20;2.70;;;0.40;;
41705;SDS011;27385;51.096;17.190;2022-07-18T15:12:52;3.00;;;0.60;;
41705;SDS011;27385;51.096;17.190;2022-07-18T15:15:23;2.50;;;0.40;;
41705;SDS011;27385;51.096;17.190;2022-07-18T15:17:55;5.50;;;0.60;;
41705;SDS011;27385;51.096;17.190;2022-07-18T15:20:27;6.00;;;0.60;;
41705;SDS011;27385;51.096;17.190;2022-07-18T15:23:01;6.10;;;0.70;;